createdAt,value
2018-04-16T00:00:56.937Z,13.40
2018-04-16T00:03:24.609Z,13.40
2018-04-16T00:05:53.300Z,13.30
2018-04-16T00:08:20.978Z,13.30
2018-04-16T00:10:48.681Z,13.30
2018-04-16T00:13:16.342Z,13.20
2018-04-16T00:15:44.034Z,13.20
2018-04-16T00:18:11.704Z,13.20
2018-04-16T00:20:39.408Z,13.20
2018-04-16T00:23:07.870Z,13.10
2018-04-16T00:25:36.323Z,13.10
2018-04-16T00:28:04.011Z,13.10
2018-04-16T00:30:32.465Z,13.00
2018-04-16T00:33:05.736Z,13.00
2018-04-16T00:35:39.180Z,12.90
2018-04-16T00:38:13.331Z,12.90
2018-04-16T00:40:46.715Z,12.90
2018-04-16T00:43:20.002Z,12.90
2018-04-16T00:45:53.482Z,12.90
2018-04-16T00:48:27.672Z,12.80
2018-04-16T00:51:01.127Z,12.80
2018-04-16T00:53:46.544Z,12.80
2018-04-16T00:56:19.941Z,12.80
2018-04-16T00:58:53.227Z,12.80
2018-04-16T01:01:26.772Z,12.80
2018-04-16T01:04:00.100Z,12.80
2018-04-16T01:09:36.607Z,12.80
2018-04-16T01:12:10.098Z,12.70
2018-04-16T01:14:43.515Z,12.70
2018-04-16T01:17:16.927Z,12.70
2018-04-16T01:19:51.139Z,12.60
2018-04-16T01:22:24.615Z,12.60
2018-04-16T01:24:57.975Z,12.50
2018-04-16T01:27:31.383Z,12.40
2018-04-16T01:30:04.770Z,12.40
2018-04-16T01:32:38.324Z,12.40
2018-04-16T01:35:11.751Z,12.40
2018-04-16T01:37:45.221Z,12.40
2018-04-16T01:40:19.304Z,12.40
2018-04-16T01:42:52.849Z,12.40
2018-04-16T01:45:27.044Z,12.50
2018-04-16T01:48:01.279Z,12.40
2018-04-16T01:50:34.571Z,12.40
2018-04-16T01:53:08.810Z,12.50
2018-04-16T01:55:42.033Z,12.40
2018-04-16T01:58:15.538Z,12.40
2018-04-16T02:00:49.009Z,12.50
2018-04-16T02:03:23.203Z,12.40
2018-04-16T02:05:56.645Z,12.20
2018-04-16T02:11:35.781Z,12.20
2018-04-16T02:14:09.136Z,12.20
2018-04-16T02:16:42.503Z,12.20
2018-04-16T02:19:15.801Z,12.20
2018-04-16T02:21:49.940Z,12.10
2018-04-16T02:24:23.441Z,12.10
2018-04-16T02:26:56.918Z,12.20
2018-04-16T02:29:31.122Z,12.10
2018-04-16T02:32:05.197Z,12.10
2018-04-16T02:34:38.649Z,12.00
2018-04-16T02:37:12.892Z,11.80
2018-04-16T02:39:46.332Z,11.80
2018-04-16T02:42:19.790Z,11.80
2018-04-16T02:44:53.093Z,11.90
2018-04-16T02:47:26.562Z,11.80
2018-04-16T02:50:00.048Z,12.00
2018-04-16T02:52:34.110Z,11.90
2018-04-16T02:55:07.585Z,11.90
2018-04-16T02:57:40.960Z,12.00
2018-04-16T03:00:14.228Z,12.00
2018-04-16T03:02:48.396Z,11.80
2018-04-16T03:05:22.973Z,11.80
2018-04-16T03:07:57.007Z,11.40
2018-04-16T03:10:30.482Z,11.40
2018-04-16T03:13:04.769Z,11.50
2018-04-16T03:15:38.210Z,11.50
2018-04-16T03:18:11.615Z,11.60
2018-04-16T03:20:45.022Z,11.70
2018-04-16T03:23:18.294Z,11.70
2018-04-16T03:25:52.887Z,11.70
2018-04-16T03:28:26.241Z,11.50
2018-04-16T03:30:59.761Z,11.40
2018-04-16T03:33:33.176Z,11.30
2018-04-16T03:36:06.670Z,11.30
2018-04-16T03:38:39.945Z,11.40
2018-04-16T03:41:14.045Z,11.50
2018-04-16T03:43:47.437Z,11.40
2018-04-16T03:46:20.703Z,11.40
2018-04-16T03:48:54.147Z,11.40
2018-04-16T03:51:23.798Z,11.40
2018-04-16T03:53:53.634Z,11.40
2018-04-16T03:56:21.938Z,11.30
2018-04-16T03:58:49.600Z,11.30
2018-04-16T04:01:17.305Z,11.40
2018-04-16T04:03:44.990Z,11.40
2018-04-16T04:06:12.688Z,11.40
2018-04-16T04:08:40.363Z,11.40
2018-04-16T04:11:08.860Z,11.40
2018-04-16T04:13:37.296Z,11.40
2018-04-16T04:16:05.044Z,11.30
2018-04-16T04:18:32.720Z,11.30
2018-04-16T04:21:00.460Z,11.20
2018-04-16T04:23:39.892Z,11.20
2018-04-16T04:26:19.497Z,11.10
2018-04-16T04:29:00.430Z,11.20
2018-04-16T04:31:28.115Z,11.10
2018-04-16T04:33:55.811Z,11.00
2018-04-16T04:36:24.250Z,11.10
2018-04-16T04:38:53.069Z,11.00
2018-04-16T04:41:22.028Z,11.00
2018-04-16T04:43:49.707Z,11.00
2018-04-16T04:46:17.377Z,11.00
2018-04-16T04:48:45.086Z,10.90
2018-04-16T04:51:12.745Z,10.90
2018-04-16T04:53:40.436Z,11.00
2018-04-16T04:56:08.104Z,11.00
2018-04-16T04:58:35.781Z,11.00
2018-04-16T05:01:03.475Z,11.00
2018-04-16T05:03:31.986Z,10.90
2018-04-16T05:05:59.684Z,10.90
2018-04-16T05:08:27.367Z,10.90
2018-04-16T05:10:55.836Z,10.80
2018-04-16T05:13:24.141Z,10.80
2018-04-16T05:15:53.003Z,10.80
2018-04-16T05:18:20.666Z,10.80
2018-04-16T05:20:48.356Z,10.80
2018-04-16T05:23:16.022Z,10.80
2018-04-16T05:25:43.704Z,10.80
2018-04-16T05:28:11.386Z,10.80
2018-04-16T05:30:39.088Z,10.80
2018-04-16T05:33:07.499Z,10.70
2018-04-16T05:35:35.166Z,10.70
2018-04-16T05:38:02.862Z,10.70
2018-04-16T05:40:30.535Z,10.70
2018-04-16T05:42:58.237Z,10.60
2018-04-16T05:45:25.905Z,10.60
2018-04-16T05:47:54.089Z,10.60
2018-04-16T05:50:22.870Z,10.50
2018-04-16T05:52:50.575Z,10.60
2018-04-16T05:55:18.224Z,10.60
2018-04-16T05:57:45.921Z,10.60
2018-04-16T06:00:14.353Z,10.70
2018-04-16T06:02:42.035Z,10.70
2018-04-16T06:05:09.709Z,10.70
2018-04-16T06:07:37.410Z,10.60
2018-04-16T06:10:05.080Z,10.60
2018-04-16T06:12:32.795Z,10.80
2018-04-16T06:15:00.473Z,10.80
2018-04-16T06:17:28.938Z,11.00
2018-04-16T06:19:56.616Z,11.00
2018-04-16T06:22:25.067Z,11.00
2018-04-16T06:24:52.756Z,11.00
2018-04-16T06:27:21.197Z,10.80
2018-04-16T06:29:49.793Z,10.80
2018-04-16T06:32:17.484Z,10.70
2018-04-16T06:34:45.937Z,10.90
2018-04-16T06:37:13.590Z,10.90
2018-04-16T06:39:41.440Z,10.90
2018-04-16T06:42:09.133Z,10.90
2018-04-16T06:44:36.835Z,10.80
2018-04-16T06:47:04.504Z,10.90
2018-04-16T06:49:32.227Z,10.80
2018-04-16T06:52:00.646Z,10.80
2018-04-16T06:54:28.346Z,10.70
2018-04-16T06:56:56.008Z,10.80
2018-04-16T06:59:24.354Z,10.70
2018-04-16T07:01:52.121Z,10.70
2018-04-16T07:04:19.768Z,10.70
2018-04-16T07:06:47.476Z,10.80
2018-04-16T07:09:15.165Z,10.90
2018-04-16T07:11:43.621Z,10.80
2018-04-16T07:14:11.265Z,10.80
2018-04-16T07:16:38.965Z,10.80
2018-04-16T07:19:07.400Z,10.80
2018-04-16T07:21:35.083Z,10.80
2018-04-16T07:24:02.750Z,10.90
2018-04-16T07:26:30.459Z,10.90
2018-04-16T07:28:58.122Z,10.90
2018-04-16T07:31:25.835Z,11.00
2018-04-16T07:33:54.283Z,11.00
2018-04-16T07:36:21.977Z,10.90
2018-04-16T07:38:49.661Z,11.00
2018-04-16T07:41:18.123Z,10.90
2018-04-16T07:43:46.616Z,10.90
2018-04-16T07:46:15.047Z,11.00
2018-04-16T07:48:42.791Z,11.00
2018-04-16T07:51:10.439Z,11.00
2018-04-16T07:53:38.127Z,11.10
2018-04-16T07:56:05.795Z,11.10
2018-04-16T07:58:33.506Z,11.10
2018-04-16T08:01:01.922Z,11.20
2018-04-16T08:03:29.586Z,11.20
2018-04-16T08:05:57.283Z,11.30
2018-04-16T08:08:24.950Z,11.30
2018-04-16T08:10:52.655Z,11.30
2018-04-16T08:13:20.331Z,11.50
2018-04-16T08:15:48.035Z,11.50
2018-04-16T08:18:15.712Z,11.60
2018-04-16T08:20:44.164Z,11.70
2018-04-16T08:23:11.832Z,11.70
2018-04-16T08:25:39.519Z,11.70
2018-04-16T08:28:07.945Z,11.80
2018-04-16T08:30:35.638Z,11.80
2018-04-16T08:33:03.323Z,11.90
2018-04-16T08:35:31.054Z,12.00
2018-04-16T08:37:58.732Z,12.20
2018-04-16T08:40:26.389Z,12.30
2018-04-16T08:42:54.098Z,12.40
2018-04-16T08:45:22.951Z,12.40
2018-04-16T08:47:52.214Z,12.50
2018-04-16T08:50:19.884Z,12.50
2018-04-16T08:52:47.583Z,12.60
2018-04-16T08:55:16.051Z,12.80
2018-04-16T08:57:44.504Z,12.80
2018-04-16T09:00:12.169Z,12.80
2018-04-16T09:02:39.853Z,12.90
2018-04-16T09:05:07.522Z,12.90
2018-04-16T09:07:35.981Z,13.20
2018-04-16T09:10:03.649Z,13.20
2018-04-16T09:12:31.353Z,13.40
2018-04-16T09:14:59.026Z,13.30
2018-04-16T09:17:26.763Z,13.40
2018-04-16T09:19:54.423Z,13.30
2018-04-16T09:22:22.868Z,13.30
2018-04-16T09:24:50.578Z,13.30
2018-04-16T09:27:18.258Z,13.30
2018-04-16T09:29:45.947Z,13.30
2018-04-16T09:32:13.623Z,13.40
2018-04-16T09:34:41.329Z,13.40
2018-04-16T09:37:09.000Z,13.40
2018-04-16T09:39:36.709Z,13.40
2018-04-16T09:42:05.170Z,13.40
2018-04-16T09:44:32.854Z,13.30
2018-04-16T09:47:00.535Z,13.20
2018-04-16T09:49:28.993Z,13.40
2018-04-16T09:51:56.662Z,13.30
2018-04-16T09:54:24.369Z,13.30
2018-04-16T09:56:52.480Z,13.50
2018-04-16T09:59:20.151Z,13.50
2018-04-16T10:01:50.630Z,13.20
2018-04-16T10:04:18.301Z,13.20
2018-04-16T10:06:45.988Z,13.30
2018-04-16T10:09:13.662Z,13.50
2018-04-16T10:11:41.354Z,13.40
2018-04-16T10:14:09.781Z,13.10
2018-04-16T10:16:37.470Z,13.10
2018-04-16T10:19:05.151Z,13.20
2018-04-16T10:21:33.612Z,13.60
2018-04-16T10:24:01.278Z,13.50
2018-04-16T10:26:28.977Z,13.40
2018-04-16T10:28:56.665Z,13.60
2018-04-16T10:31:24.358Z,13.90
2018-04-16T10:33:52.037Z,14.10
2018-04-16T10:36:20.506Z,13.90
2018-04-16T10:38:48.185Z,13.90
2018-04-16T10:41:16.653Z,13.90
2018-04-16T10:43:45.080Z,14.10
2018-04-16T10:46:12.757Z,14.10
2018-04-16T10:48:40.451Z,14.00
2018-04-16T10:51:08.117Z,14.10
2018-04-16T10:53:36.591Z,15.00
2018-04-16T10:56:04.263Z,14.90
2018-04-16T10:58:32.728Z,15.70
2018-04-16T11:01:00.388Z,15.60
2018-04-16T11:03:28.093Z,15.60
2018-04-16T11:05:55.794Z,15.50
2018-04-16T11:08:23.864Z,15.80
2018-04-16T11:10:52.034Z,16.10
2018-04-16T11:13:19.717Z,16.10
2018-04-16T11:15:47.394Z,16.10
2018-04-16T11:18:15.858Z,15.90
2018-04-16T11:20:43.533Z,15.90
2018-04-16T11:23:11.998Z,16.40
2018-04-16T11:25:39.664Z,16.40
2018-04-16T11:28:07.378Z,16.50
2018-04-16T11:30:35.055Z,16.60
2018-04-16T11:33:02.737Z,16.70
2018-04-16T11:35:30.448Z,16.80
2018-04-16T11:37:58.171Z,16.60
2018-04-16T11:40:25.846Z,16.50
2018-04-16T11:42:54.269Z,16.30
2018-04-16T11:45:21.980Z,16.20
2018-04-16T11:47:49.650Z,16.30
2018-04-16T11:50:18.110Z,16.80
2018-04-16T11:52:45.805Z,16.80
2018-04-16T11:55:14.266Z,16.60
2018-04-16T11:57:41.932Z,16.50
2018-04-16T12:00:10.401Z,16.00
2018-04-16T12:02:38.088Z,15.90
2018-04-16T12:05:06.566Z,16.30
2018-04-16T12:07:34.999Z,16.30
2018-04-16T12:10:02.752Z,16.30
2018-04-16T12:12:30.427Z,16.20
2018-04-16T12:14:58.121Z,16.30
2018-04-16T12:17:25.791Z,16.20
2018-04-16T12:19:54.212Z,16.60
2018-04-16T12:22:23.103Z,16.50
2018-04-16T12:24:50.765Z,16.30
2018-04-16T12:27:19.230Z,16.20
2018-04-16T12:29:46.901Z,16.20
2018-04-16T12:32:14.582Z,15.70
2018-04-16T12:34:42.225Z,15.50
2018-04-16T12:37:09.930Z,15.20
2018-04-16T12:39:37.593Z,15.10
2018-04-16T12:42:05.285Z,15.00
2018-04-16T12:44:32.964Z,15.20
2018-04-16T12:47:00.692Z,15.00
2018-04-16T12:49:29.128Z,15.00
2018-04-16T12:51:56.833Z,15.00
2018-04-16T12:54:24.501Z,14.90
2018-04-16T12:56:54.183Z,15.00
2018-04-16T12:59:22.869Z,15.00
2018-04-16T13:01:50.580Z,15.10
2018-04-16T13:04:18.245Z,15.20
2018-04-16T13:06:46.730Z,15.10
2018-04-16T13:09:14.434Z,15.10
2018-04-16T13:11:42.104Z,15.00
2018-04-16T13:14:09.801Z,15.10
2018-04-16T13:16:37.461Z,15.10
2018-04-16T13:19:05.141Z,15.10
2018-04-16T13:21:32.846Z,15.00
2018-04-16T13:24:00.541Z,14.90
2018-04-16T13:26:28.214Z,14.90
2018-04-16T13:28:55.894Z,14.90
2018-04-16T13:31:23.646Z,14.80
2018-04-16T13:33:51.952Z,14.70
2018-04-16T13:36:19.627Z,14.60
2018-04-16T13:38:47.317Z,14.50
2018-04-16T13:41:15.760Z,14.60
2018-04-16T13:43:43.449Z,14.50
2018-04-16T13:46:11.896Z,14.50
2018-04-16T13:48:39.566Z,14.50
2018-04-16T13:51:07.270Z,14.40
2018-04-16T13:53:35.706Z,14.60
2018-04-16T13:56:03.555Z,14.60
2018-04-16T13:58:31.214Z,14.70
2018-04-16T14:00:58.888Z,14.60
2018-04-16T14:03:26.553Z,14.60
2018-04-16T14:05:54.258Z,14.60
2018-04-16T14:08:22.701Z,14.50
2018-04-16T14:10:50.390Z,14.50
2018-04-16T14:13:18.815Z,14.50
2018-04-16T14:15:46.541Z,14.40
2018-04-16T14:18:14.973Z,14.50
2018-04-16T14:20:42.659Z,14.40
2018-04-16T14:23:10.325Z,14.40
2018-04-16T14:25:38.006Z,14.50
2018-04-16T14:28:06.432Z,14.40
2018-04-16T14:30:34.095Z,14.40
2018-04-16T14:33:01.777Z,14.30
2018-04-16T14:35:29.442Z,14.20
2018-04-16T14:37:57.135Z,14.20
2018-04-16T14:40:25.554Z,14.20
2018-04-16T14:42:54.120Z,14.10
2018-04-16T14:45:22.957Z,14.20
2018-04-16T14:47:50.654Z,14.20
2018-04-16T14:50:18.331Z,14.30
2018-04-16T14:52:46.031Z,14.20
2018-04-16T14:55:13.699Z,14.10
2018-04-16T14:57:41.411Z,14.10
2018-04-16T15:00:09.081Z,14.10
2018-04-16T15:02:36.756Z,14.10
2018-04-16T15:05:04.414Z,14.00
2018-04-16T15:07:32.110Z,14.00
2018-04-16T15:09:59.785Z,14.00
2018-04-16T15:12:28.241Z,13.90
2018-04-16T15:14:55.911Z,13.80
2018-04-16T15:17:24.187Z,13.80
2018-04-16T15:19:53.080Z,13.80
2018-04-16T15:22:20.764Z,13.80
2018-04-16T15:24:49.232Z,13.80
2018-04-16T15:27:17.681Z,13.80
2018-04-16T15:29:45.385Z,13.80
2018-04-16T15:32:13.813Z,13.80
2018-04-16T15:34:41.499Z,13.80
2018-04-16T15:37:09.176Z,13.70
2018-04-16T15:39:36.901Z,13.70
2018-04-16T15:42:04.569Z,13.70
2018-04-16T15:44:32.269Z,13.70
2018-04-16T15:47:00.711Z,13.70
2018-04-16T15:49:28.414Z,13.70
2018-04-16T15:51:56.880Z,13.70
2018-04-16T15:54:24.595Z,13.70
2018-04-16T15:56:53.491Z,13.80
2018-04-16T15:59:23.323Z,13.90
2018-04-16T16:01:51.010Z,13.90
2018-04-16T16:04:18.697Z,14.00
2018-04-16T16:06:46.414Z,14.10
2018-04-16T16:09:14.118Z,14.10
2018-04-16T16:11:41.795Z,14.20
2018-04-16T16:14:09.484Z,14.20
2018-04-16T16:16:37.160Z,14.30
2018-04-16T16:19:04.844Z,14.30
2018-04-16T16:21:32.539Z,14.30
2018-04-16T16:24:00.220Z,14.30
2018-04-16T16:26:27.914Z,14.30
2018-04-16T16:28:55.614Z,14.30
2018-04-16T16:31:24.452Z,14.40
2018-04-16T16:33:53.411Z,14.40
2018-04-16T16:36:21.111Z,14.40
2018-04-16T16:38:48.781Z,14.40
2018-04-16T16:41:16.473Z,14.30
2018-04-16T16:43:44.923Z,14.30
2018-04-16T16:46:12.588Z,14.30
2018-04-16T16:48:40.359Z,14.40
2018-04-16T16:51:08.035Z,14.30
2018-04-16T16:53:36.523Z,14.10
2018-04-16T16:56:04.969Z,14.10
2018-04-16T16:58:32.689Z,14.10
2018-04-16T17:01:00.359Z,14.20
2018-04-16T17:03:28.060Z,14.20
2018-04-16T17:05:55.737Z,14.20
2018-04-16T17:08:24.201Z,14.10
2018-04-16T17:10:52.886Z,14.10
2018-04-16T17:13:20.582Z,14.10
2018-04-16T17:15:48.247Z,13.90
2018-04-16T17:18:15.960Z,13.80
2018-04-16T17:20:43.643Z,13.70
2018-04-16T17:23:11.321Z,13.70
2018-04-16T17:25:39.754Z,13.70
2018-04-16T17:28:07.475Z,13.60
2018-04-16T17:30:35.127Z,13.70
2018-04-16T17:33:03.575Z,13.60
2018-04-16T17:35:31.275Z,13.60
2018-04-16T17:37:58.965Z,13.60
2018-04-16T17:40:26.663Z,13.50
2018-04-16T17:42:54.321Z,13.50
2018-04-16T17:45:22.025Z,13.50
2018-04-16T17:47:49.707Z,13.50
2018-04-16T17:50:17.393Z,13.50
2018-04-16T17:52:45.090Z,13.50
2018-04-16T17:55:13.545Z,13.60
2018-04-16T17:57:41.219Z,13.60
2018-04-16T18:00:08.915Z,13.50
2018-04-16T18:02:36.578Z,13.50
2018-04-16T18:05:04.275Z,13.50
2018-04-16T18:07:31.942Z,13.50
2018-04-16T18:09:59.635Z,13.50
2018-04-16T18:12:27.313Z,13.50
2018-04-16T18:14:55.783Z,13.40
2018-04-16T18:17:24.219Z,13.40
2018-04-16T18:19:53.042Z,13.40
2018-04-16T18:22:20.757Z,13.40
2018-04-16T18:24:48.424Z,13.40
2018-04-16T18:27:16.098Z,13.40
2018-04-16T18:29:43.792Z,13.40
2018-04-16T18:32:11.504Z,13.40
2018-04-16T18:34:39.156Z,13.40
2018-04-16T18:37:06.894Z,13.40
2018-04-16T18:39:35.338Z,13.40
2018-04-16T18:42:03.060Z,13.40
2018-04-16T18:44:30.759Z,13.40
2018-04-16T18:46:58.457Z,13.30
2018-04-16T18:49:26.894Z,13.20
2018-04-16T18:51:54.589Z,13.20
2018-04-16T18:54:23.474Z,13.20
2018-04-16T18:56:51.173Z,13.20
2018-04-16T18:59:18.837Z,13.20
2018-04-16T19:01:46.555Z,13.20
2018-04-16T19:04:14.984Z,13.20
2018-04-16T19:06:42.648Z,13.20
2018-04-16T19:09:10.353Z,13.20
2018-04-16T19:11:38.053Z,13.30
2018-04-16T19:14:05.757Z,13.20
2018-04-16T19:16:33.412Z,13.20
2018-04-16T19:19:01.117Z,13.20
2018-04-16T19:21:34.402Z,13.20
2018-04-16T19:24:02.104Z,13.10
2018-04-16T19:26:29.817Z,13.10
2018-04-16T19:28:57.525Z,13.10
2018-04-16T19:31:25.182Z,13.10
2018-04-16T19:33:59.629Z,13.10
2018-04-16T19:36:27.297Z,13.10
2018-04-16T19:38:54.983Z,13.10
2018-04-16T19:41:22.664Z,13.00
2018-04-16T19:43:51.155Z,13.00
2018-04-16T19:46:20.920Z,13.00
2018-04-16T19:48:54.445Z,12.90
2018-04-16T19:51:23.691Z,13.00
2018-04-16T19:53:51.977Z,12.90
2018-04-16T19:56:25.275Z,12.90
2018-04-16T19:58:54.253Z,12.90
2018-04-16T20:01:22.993Z,12.90
2018-04-16T20:03:56.272Z,12.80
2018-04-16T20:06:23.975Z,12.80
2018-04-16T20:08:51.635Z,12.80
2018-04-16T20:11:19.326Z,12.80
2018-04-16T20:13:47.024Z,12.80
2018-04-16T20:16:14.727Z,12.80
2018-04-16T20:18:42.395Z,12.80
2018-04-16T20:21:10.105Z,12.80
2018-04-16T20:23:37.788Z,12.70
2018-04-16T20:26:06.233Z,12.70
2018-04-16T20:28:33.928Z,12.70
2018-04-16T20:31:01.601Z,12.70
2018-04-16T20:33:30.089Z,12.70
2018-04-16T20:35:58.592Z,12.60
2018-04-16T20:38:26.275Z,12.60
2018-04-16T20:40:53.950Z,12.50
2018-04-16T20:43:21.640Z,12.50
2018-04-16T20:45:50.086Z,12.30
2018-04-16T20:48:17.857Z,12.30
2018-04-16T20:50:45.560Z,12.20
2018-04-16T20:53:14.037Z,12.10
2018-04-16T20:55:42.470Z,12.20
2018-04-16T20:58:10.168Z,12.10
2018-04-16T21:00:38.592Z,12.10
2018-04-16T21:03:06.311Z,12.10
2018-04-16T21:05:34.758Z,12.10
2018-04-16T21:08:03.289Z,12.10
2018-04-16T21:10:30.986Z,12.10
2018-04-16T21:12:59.605Z,12.10
2018-04-16T21:15:27.325Z,12.10
2018-04-16T21:17:54.994Z,12.00
2018-04-16T21:20:22.695Z,12.10
2018-04-16T21:22:50.356Z,12.00
2018-04-16T21:25:18.057Z,12.00
2018-04-16T21:27:45.718Z,12.00
2018-04-16T21:30:13.419Z,12.00
2018-04-16T21:32:41.086Z,12.00
2018-04-16T21:35:08.791Z,12.00
2018-04-16T21:37:36.443Z,11.90
2018-04-16T21:40:04.143Z,11.90
2018-04-16T21:42:31.853Z,11.90
2018-04-16T21:44:59.531Z,11.80
2018-04-16T21:47:27.956Z,11.60
2018-04-16T21:49:55.675Z,11.60
2018-04-16T21:52:24.147Z,11.60
2018-04-16T21:54:52.563Z,11.60
2018-04-16T21:57:20.282Z,11.60
2018-04-16T21:59:48.722Z,11.70
2018-04-16T22:02:16.440Z,11.60
2018-04-16T22:04:44.116Z,11.70
2018-04-16T22:07:11.828Z,11.60
2018-04-16T22:09:39.493Z,11.60
2018-04-16T22:12:07.199Z,11.60
2018-04-16T22:14:34.879Z,11.60
2018-04-16T22:17:03.363Z,11.50
2018-04-16T22:19:31.045Z,11.60
2018-04-16T22:21:58.752Z,11.50
2018-04-16T22:24:26.413Z,11.50
2018-04-16T22:26:54.132Z,11.50
2018-04-16T22:29:22.930Z,11.40
2018-04-16T22:31:50.653Z,11.40
2018-04-16T22:34:18.341Z,11.40
2018-04-16T22:36:46.027Z,11.40
2018-04-16T22:39:13.714Z,11.30
2018-04-16T22:41:42.172Z,11.20
2018-04-16T22:44:09.921Z,11.20
2018-04-16T22:46:37.603Z,10.90
2018-04-16T22:49:06.066Z,11.00
2018-04-16T22:51:33.766Z,11.00
2018-04-16T22:54:01.467Z,11.00
2018-04-16T22:56:29.153Z,11.00
2018-04-16T22:58:56.871Z,11.00
2018-04-16T23:01:24.569Z,11.00
2018-04-16T23:03:53.594Z,10.90
2018-04-16T23:06:22.048Z,10.90
2018-04-16T23:08:49.746Z,10.90
2018-04-16T23:11:17.428Z,11.00
2018-04-16T23:13:45.147Z,11.00
2018-04-16T23:16:13.583Z,11.00
2018-04-16T23:18:41.328Z,11.00
2018-04-16T23:21:09.007Z,10.90
2018-04-16T23:23:36.678Z,10.90
2018-04-16T23:26:04.465Z,10.90
2018-04-16T23:28:32.138Z,10.80
2018-04-16T23:30:59.834Z,10.70
2018-04-16T23:33:27.505Z,10.50
2018-04-16T23:35:55.213Z,10.40
2018-04-16T23:38:24.151Z,10.40
2018-04-16T23:40:52.999Z,10.40
2018-04-16T23:43:20.674Z,10.50
2018-04-16T23:45:49.129Z,10.60
2018-04-16T23:48:16.815Z,10.50
2018-04-16T23:50:45.292Z,10.60
2018-04-16T23:53:13.716Z,10.70
2018-04-16T23:55:42.178Z,10.70
2018-04-16T23:58:09.910Z,10.70
